Terminal Aerodrome Forecast
Issued by NWS Detroit/Pontiac, MI

Home | Current Version | Previous Version | Text Only | Print | Product List | Glossary On
Versions: 1 2 3 4 5 6 7 8 9 10 11 12 13 14 15 16 17 18 19
000
FTUS43 KDTX 300500
TAFFNT
TAF
KFNT 300527Z 3006/3106 27003KT 4SM BR SCT040 SCT100
      TEMPO 3006/3010 P6SM NSW BKN040
     FM301200 27006KT P6SM SCT030
     FM301700 27010KT P6SM BKN050
     FM302300 25006KT P6SM BKN070=

USA.gov is the U.S. government's official web portal to all federal, state and local government web resources and services.